Kermit, TX

3:35 AM CST on January 22, 2017 (GMT -0600)
Winkler County | | Change Station
Active Advisory: Wind Advisory

Elev 2818 ft 31.78 °N, 103.20 °W | Updated 42 minutes ago

Clear
Clear
47 °F
Feels Like 47 °F
N
31
Wind Variable Wind from West
Gusts 40 mph

Today
High -- | Low -- °F
--% Chance of Precip.
Yesterday
High -- | Low -- °F
Precip. -- in
Pressure 29.71 in
Visibility 10.0 miles
Clouds Clear
Dew Point 22 °F
Humidity 37%
Rainfall 0.00 in
Snow Depth Not available.
7:50 AM 6:17 PM
Waning Crescent, 28% visible
METAR KINK 220853Z AUTO 28027G35KT 10SM CLR 08/M06 A2977 RMK AO2 PK WND 29035/0853 SLP061 T00831056 53018
Pressure 29.71 in
Visibility 10.0 miles
Clouds Clear
Dew Point 22 °F
Humidity 37%
Rainfall 0.00 in
Snow Depth Not available.
7:50 AM 6:17 PM
Waning Crescent, 28% visible
METAR KINK 220853Z AUTO 28027G35KT 10SM CLR 08/M06 A2977 RMK AO2 PK WND 29035/0853 SLP061 T00831056 53018

Get Your Daily Forecast Email!

Thanks for signing up!

Be on the lookout for a verification email in your inbox.

You'll start receiving the daily forecast at 8 AM.

×

10-Day Weather Forecast

Almanac

Astronomy

Jan. 22, 2017 Rise Set
Actual Time
Civil Twilight
Nautical Twilight
Astronomical Twilight
Moon
Length of Visible Light
Length of Day
Tomorrow will be .
, % of the Moon is Illuminated

Today's Extremes

State Highs State Lows

Community

WunderPhotos

Upload Photos

1,962,540 photos uploaded!

WunderBlog® & News

Nearby

Air Quality

  Air Quality AQ Index Pollutant
Not available.

Snow Depth

Station Depth Elevation

Earthquake Activity

City Distance Mag. Time & Date
Minimum magnitude displayed is 2.5.

Coastal Water Temperatures

Place Temperature

Stations

Nearby Weather Stations

Station Location Temp. Windchill Dew Point Humidity Wind Precip. Elev Updated Type
                   

Watches & Warnings

Wind Advisory
Issued: 2:01 PM MST Jan. 21, 2017 – National Weather Service

... Wind Advisory remains in effect until 6 am CST /5 am MST/
Sunday...

* timing... until 6 am CST /5 am MST/ Sunday.

* Winds... west 25 to 40 mph with gusts to around 55 mph.

* Impacts... secure lawn furniture... garbage cans or other
objects which could be blown about by the wind.

Precautionary/preparedness actions...

A Wind Advisory means that winds of 30 mph are expected. Winds
this strong can make driving difficult... especially for high
profile vehicles. Use extra caution.